createdAt,value
2023-05-25T00:01:49.977Z,6.90
2023-05-25T00:04:19.601Z,6.90
2023-05-25T00:06:47.793Z,6.90
2023-05-25T00:09:17.150Z,6.90
2023-05-25T00:11:45.327Z,6.80
2023-05-25T00:14:13.241Z,6.90
2023-05-25T00:16:41.247Z,6.80
2023-05-25T00:19:10.583Z,6.80
2023-05-25T00:21:39.134Z,6.80
2023-05-25T00:24:07.363Z,6.80
2023-05-25T00:26:36.711Z,6.80
2023-05-25T00:29:04.939Z,6.80
2023-05-25T00:31:35.471Z,6.80
2023-05-25T00:34:03.578Z,6.70
2023-05-25T00:36:31.484Z,6.70
2023-05-25T00:38:59.469Z,6.80
2023-05-25T00:41:28.747Z,6.80
2023-05-25T00:43:58.047Z,6.90
2023-05-25T00:46:26.840Z,6.80
2023-05-25T00:48:56.714Z,6.70
2023-05-25T00:51:25.841Z,6.70
2023-05-25T00:53:53.771Z,6.70
2023-05-25T00:56:28.274Z,6.80
2023-05-25T00:59:01.677Z,6.80
2023-05-25T01:01:33.666Z,6.90
2023-05-25T01:04:04.413Z,7.00
2023-05-25T01:06:35.147Z,6.80
2023-05-25T01:09:06.049Z,6.70
2023-05-25T01:11:36.324Z,6.60
2023-05-25T01:14:05.604Z,6.60
2023-05-25T01:16:33.891Z,6.60
2023-05-25T01:19:02.274Z,6.60
2023-05-25T01:21:42.047Z,6.60
2023-05-25T01:24:17.643Z,6.50
2023-05-25T01:26:49.654Z,6.50
2023-05-25T01:29:20.463Z,6.50
2023-05-25T01:31:49.192Z,6.60
2023-05-25T01:34:18.107Z,6.70
2023-05-25T01:36:47.434Z,6.80
2023-05-25T01:39:15.409Z,6.60
2023-05-25T01:41:43.416Z,6.50
2023-05-25T01:44:11.611Z,6.30
2023-05-25T01:46:40.775Z,6.10
2023-05-25T01:49:19.473Z,6.00
2023-05-25T01:51:57.896Z,6.00
2023-05-25T01:54:35.261Z,6.10
2023-05-25T01:57:07.989Z,6.10
2023-05-25T01:59:38.996Z,6.10
2023-05-25T02:02:08.023Z,6.20
2023-05-25T02:04:36.359Z,6.10
2023-05-25T02:07:06.617Z,6.20
2023-05-25T02:09:34.493Z,6.20
2023-05-25T02:12:02.450Z,6.20
2023-05-25T02:14:30.545Z,6.20
2023-05-25T02:17:01.795Z,6.20
2023-05-25T02:19:29.855Z,6.20
2023-05-25T02:21:57.828Z,6.30
2023-05-25T02:24:27.340Z,6.30
2023-05-25T02:26:55.482Z,6.30
2023-05-25T02:29:23.395Z,6.40
2023-05-25T02:31:51.369Z,6.30
2023-05-25T02:34:19.665Z,6.30
2023-05-25T02:36:47.566Z,6.30
2023-05-25T02:39:15.510Z,6.30
2023-05-25T02:41:44.731Z,6.30
2023-05-25T02:44:12.657Z,6.40
2023-05-25T02:46:40.601Z,6.30
2023-05-25T02:49:08.671Z,6.30
2023-05-25T02:51:37.115Z,6.30
2023-05-25T02:54:05.189Z,6.30
2023-05-25T02:56:33.133Z,6.30
2023-05-25T02:59:02.369Z,6.20
2023-05-25T03:01:31.089Z,6.20
2023-05-25T03:03:59.305Z,6.20
2023-05-25T03:06:27.374Z,6.20
2023-05-25T03:08:55.514Z,6.10
2023-05-25T03:11:23.572Z,6.20
2023-05-25T03:13:52.499Z,6.10
2023-05-25T03:16:23.399Z,6.10
2023-05-25T03:18:51.444Z,6.10
2023-05-25T03:21:19.423Z,6.10
2023-05-25T03:23:47.360Z,6.00
2023-05-25T03:26:15.711Z,5.90
2023-05-25T03:28:43.639Z,5.80
2023-05-25T03:31:12.192Z,5.70
2023-05-25T03:33:41.449Z,5.60
2023-05-25T03:36:09.887Z,5.50
2023-05-25T03:38:38.222Z,5.50
2023-05-25T03:41:06.575Z,5.50
2023-05-25T03:43:35.531Z,5.60
2023-05-25T03:46:03.492Z,5.70
2023-05-25T03:48:31.437Z,5.80
2023-05-25T03:51:00.790Z,5.90
2023-05-25T03:53:28.683Z,6.00
2023-05-25T03:55:56.694Z,6.10
2023-05-25T03:58:24.642Z,6.20
2023-05-25T04:00:52.813Z,6.30
2023-05-25T04:03:21.589Z,6.30
2023-05-25T04:05:50.099Z,6.30
2023-05-25T04:08:20.650Z,6.30
2023-05-25T04:10:49.100Z,6.30
2023-05-25T04:13:17.059Z,6.40
2023-05-25T04:15:45.148Z,6.50
2023-05-25T04:18:13.408Z,6.60
2023-05-25T04:20:41.901Z,6.90
2023-05-25T04:23:09.927Z,7.10
2023-05-25T04:25:39.241Z,7.40
2023-05-25T04:28:08.550Z,7.60
2023-05-25T04:30:36.721Z,7.90
2023-05-25T04:33:04.961Z,8.20
2023-05-25T04:35:32.942Z,8.40
2023-05-25T04:38:02.807Z,8.60
2023-05-25T04:40:33.174Z,8.60
2023-05-25T04:43:03.472Z,8.70
2023-05-25T04:45:33.283Z,8.90
2023-05-25T04:48:01.676Z,9.20
2023-05-25T04:50:30.289Z,9.50
2023-05-25T04:52:58.448Z,9.80
2023-05-25T04:55:26.452Z,10.20
2023-05-25T04:57:55.258Z,10.50
2023-05-25T05:00:24.895Z,10.70
2023-05-25T05:02:54.088Z,11.00
2023-05-25T05:05:22.103Z,11.40
2023-05-25T05:07:49.961Z,11.70
2023-05-25T05:10:17.999Z,12.00
2023-05-25T05:12:45.909Z,12.30
2023-05-25T05:15:13.833Z,12.70
2023-05-25T05:17:43.107Z,13.00
2023-05-25T05:20:11.755Z,13.40
2023-05-25T05:22:39.751Z,13.70
2023-05-25T05:25:08.460Z,14.10
2023-05-25T05:27:36.370Z,14.30
2023-05-25T05:30:04.685Z,14.50
2023-05-25T05:32:32.577Z,14.60
2023-05-25T05:35:02.311Z,14.70
2023-05-25T05:37:30.252Z,14.90
2023-05-25T05:39:58.165Z,15.20
2023-05-25T05:42:26.064Z,15.40
2023-05-25T05:44:53.952Z,15.50
2023-05-25T05:47:22.243Z,15.60
2023-05-25T05:49:50.153Z,15.70
2023-05-25T05:52:19.449Z,15.90
2023-05-25T05:54:47.340Z,16.00
2023-05-25T05:57:15.283Z,16.20
2023-05-25T05:59:43.328Z,16.00
2023-05-25T06:02:11.548Z,16.10
2023-05-25T06:04:39.570Z,16.10
2023-05-25T06:07:07.476Z,16.10
2023-05-25T06:09:36.732Z,16.30
2023-05-25T06:12:05.041Z,16.30
2023-05-25T06:14:32.902Z,16.40
2023-05-25T06:17:00.952Z,16.10
2023-05-25T06:19:29.001Z,15.80
2023-05-25T06:21:56.914Z,15.50
2023-05-25T06:24:24.789Z,15.60
2023-05-25T06:26:54.062Z,15.80
2023-05-25T06:29:22.119Z,16.00
2023-05-25T06:31:50.081Z,16.20
2023-05-25T06:34:18.088Z,16.20
2023-05-25T06:36:46.876Z,16.20
2023-05-25T06:39:14.926Z,16.10
2023-05-25T06:41:42.839Z,16.40
2023-05-25T06:44:12.103Z,16.60
2023-05-25T06:46:41.427Z,16.60
2023-05-25T06:49:09.563Z,16.70
2023-05-25T06:51:37.670Z,16.70
2023-05-25T06:54:06.877Z,16.60
2023-05-25T06:56:34.808Z,16.80
2023-05-25T06:59:02.743Z,16.70
2023-05-25T07:01:32.090Z,16.80
2023-05-25T07:04:00.094Z,16.90
2023-05-25T07:06:27.984Z,17.10
2023-05-25T07:08:56.422Z,17.30
2023-05-25T07:11:24.301Z,17.20
2023-05-25T07:13:52.276Z,17.40
2023-05-25T07:16:20.500Z,17.80
2023-05-25T07:18:49.804Z,17.90
2023-05-25T07:21:20.315Z,17.90
2023-05-25T07:23:50.421Z,18.00
2023-05-25T07:26:22.494Z,18.20
2023-05-25T07:28:53.828Z,18.40
2023-05-25T07:31:24.012Z,18.50
2023-05-25T07:34:00.918Z,18.70
2023-05-25T07:36:31.852Z,18.70
2023-05-25T07:39:01.910Z,18.80
2023-05-25T07:41:33.269Z,19.00
2023-05-25T07:44:04.755Z,19.10
2023-05-25T07:46:35.492Z,19.10
2023-05-25T07:49:12.790Z,19.20
2023-05-25T07:51:47.831Z,19.30
2023-05-25T07:54:19.118Z,19.40
2023-05-25T07:56:49.257Z,19.80
2023-05-25T07:59:21.285Z,20.00
2023-05-25T08:01:53.685Z,19.80
2023-05-25T08:04:34.450Z,19.30
2023-05-25T08:07:06.016Z,19.00
2023-05-25T08:09:36.842Z,19.10
2023-05-25T08:12:33.726Z,19.30
2023-05-25T08:14:57.796Z,19.60
2023-05-25T08:17:29.921Z,19.60
2023-05-25T08:20:03.239Z,19.50
2023-05-25T08:22:33.723Z,19.70
2023-05-25T08:25:04.806Z,19.80
2023-05-25T08:27:36.023Z,20.00
2023-05-25T08:30:08.552Z,20.00
2023-05-25T08:32:36.935Z,20.30
2023-05-25T08:35:07.044Z,20.10
2023-05-25T08:37:35.648Z,20.00
2023-05-25T08:40:04.206Z,20.10
2023-05-25T08:42:32.256Z,20.20
2023-05-25T08:45:00.266Z,20.30
2023-05-25T08:47:32.394Z,20.50
2023-05-25T08:50:04.084Z,21.00
2023-05-25T08:52:35.277Z,21.50
2023-05-25T08:55:06.594Z,22.00
2023-05-25T08:57:46.676Z,22.30
2023-05-25T09:00:18.661Z,22.60
2023-05-25T09:02:51.997Z,22.80
2023-05-25T09:05:20.658Z,22.90
2023-05-25T09:07:51.539Z,22.80
2023-05-25T09:10:19.929Z,22.50
2023-05-25T09:12:48.990Z,22.40
2023-05-25T09:15:17.000Z,22.30
2023-05-25T09:17:45.056Z,22.10
2023-05-25T09:20:13.933Z,22.00
2023-05-25T09:22:42.983Z,21.90
2023-05-25T09:25:14.038Z,21.70
2023-05-25T09:27:43.231Z,22.00
2023-05-25T09:30:11.764Z,22.20
2023-05-25T09:32:39.962Z,22.60
2023-05-25T09:35:09.163Z,22.90
2023-05-25T09:37:38.432Z,22.80
2023-05-25T09:40:09.060Z,23.20
2023-05-25T09:45:25.707Z,23.00
2023-05-25T09:47:57.189Z,23.30
2023-05-25T09:50:37.097Z,23.70
2023-05-25T09:53:05.601Z,23.70
2023-05-25T09:55:44.345Z,23.90
2023-05-25T09:58:31.875Z,23.80
2023-05-25T10:01:01.047Z,23.80
2023-05-25T10:03:31.011Z,23.50
2023-05-25T10:06:17.226Z,23.20
2023-05-25T10:08:46.996Z,23.30
2023-05-25T10:11:16.257Z,23.00
2023-05-25T10:13:52.396Z,23.00
2023-05-25T10:16:35.550Z,23.00
2023-05-25T10:19:16.402Z,23.30
2023-05-25T10:21:50.772Z,23.80
2023-05-25T10:24:28.932Z,23.90
2023-05-25T10:31:23.860Z,24.50
2023-05-25T10:33:54.141Z,24.50
2023-05-25T10:36:46.694Z,23.90
2023-05-25T10:39:21.898Z,23.50
2023-05-25T10:42:07.408Z,23.90
2023-05-25T10:45:01.713Z,24.10
2023-05-25T10:47:42.941Z,24.30
2023-05-25T10:50:32.710Z,23.90
2023-05-25T10:53:06.328Z,24.00
2023-05-25T10:56:01.015Z,24.40
2023-05-25T11:01:25.635Z,24.90
2023-05-25T11:04:02.833Z,24.80
2023-05-25T11:07:21.952Z,24.80
2023-05-25T11:10:21.909Z,24.80
2023-05-25T11:12:59.594Z,25.20
2023-05-25T11:15:51.319Z,24.70
2023-05-25T11:29:16.745Z,25.20
2023-05-25T11:32:45.965Z,25.60
2023-05-25T11:35:14.729Z,25.10
2023-05-25T11:37:43.201Z,25.00
2023-05-25T11:40:12.040Z,25.00
2023-05-25T11:42:42.577Z,24.80
2023-05-25T11:45:15.832Z,24.90
2023-05-25T11:47:43.815Z,25.00
2023-05-25T11:50:20.039Z,24.80
2023-05-25T11:52:50.666Z,25.00
2023-05-25T11:55:25.920Z,25.00
2023-05-25T12:01:43.881Z,25.30
2023-05-25T12:04:22.366Z,25.50
2023-05-25T12:07:30.923Z,25.60
2023-05-25T12:10:13.016Z,25.70
2023-05-25T12:12:46.892Z,25.90
2023-05-25T12:15:47.332Z,25.70
2023-05-25T12:18:34.388Z,25.70
2023-05-25T12:21:08.423Z,25.90
2023-05-25T12:23:45.133Z,25.80
2023-05-25T12:26:25.184Z,25.40
2023-05-25T12:29:05.660Z,25.80
2023-05-25T12:31:43.900Z,26.20
2023-05-25T12:34:20.925Z,26.00
2023-05-25T12:36:51.821Z,25.90
2023-05-25T12:40:06.671Z,25.80
2023-05-25T12:43:13.499Z,26.40
2023-05-25T12:45:48.761Z,26.90
2023-05-25T12:48:33.332Z,27.30
2023-05-25T12:51:29.616Z,27.10
2023-05-25T12:53:59.469Z,27.20
2023-05-25T12:56:34.830Z,27.00
2023-05-25T12:59:16.045Z,26.80
2023-05-25T13:01:44.776Z,27.50
2023-05-25T13:04:12.910Z,27.70
2023-05-25T13:06:42.754Z,27.90
2023-05-25T13:09:11.149Z,27.70
2023-05-25T13:11:39.494Z,27.30
2023-05-25T13:14:07.664Z,26.80
2023-05-25T13:16:36.021Z,26.70
2023-05-25T13:19:04.443Z,26.70
2023-05-25T13:21:33.001Z,27.10
2023-05-25T13:24:02.608Z,27.40
2023-05-25T13:26:31.104Z,27.60
2023-05-25T13:28:59.235Z,27.20
2023-05-25T13:31:27.437Z,26.30
2023-05-25T13:33:56.478Z,25.90
2023-05-25T13:36:24.752Z,25.80
2023-05-25T13:38:53.304Z,25.50
2023-05-25T13:41:22.914Z,25.10
2023-05-25T13:43:50.971Z,24.70
2023-05-25T13:46:33.650Z,24.50
2023-05-25T13:49:03.622Z,24.70
2023-05-25T13:51:35.466Z,24.70
2023-05-25T13:54:04.382Z,24.50
2023-05-25T13:56:34.294Z,24.20
2023-05-25T13:59:02.568Z,24.30
2023-05-25T14:01:33.777Z,24.70
2023-05-25T14:04:02.123Z,24.40
2023-05-25T14:06:30.801Z,24.10
2023-05-25T14:08:59.058Z,24.10
2023-05-25T14:11:28.767Z,24.10
2023-05-25T14:13:58.598Z,23.80
2023-05-25T14:16:26.818Z,23.90
2023-05-25T14:18:55.572Z,23.90
2023-05-25T14:21:23.678Z,23.70
2023-05-25T14:23:51.554Z,23.40
2023-05-25T14:26:19.997Z,23.50
2023-05-25T14:28:49.808Z,23.40
2023-05-25T14:31:19.695Z,23.20
2023-05-25T14:33:48.711Z,23.10
2023-05-25T14:36:17.434Z,23.10
2023-05-25T14:38:46.164Z,22.90
2023-05-25T14:41:15.849Z,22.50
2023-05-25T14:43:44.448Z,22.30
2023-05-25T14:46:14.271Z,22.30
2023-05-25T14:48:44.882Z,22.30
2023-05-25T14:51:16.684Z,22.30
2023-05-25T14:53:46.637Z,22.20
2023-05-25T14:56:17.496Z,22.10
2023-05-25T14:58:46.877Z,21.90
2023-05-25T15:01:17.070Z,21.90
2023-05-25T15:03:51.290Z,22.00
2023-05-25T15:06:21.088Z,22.00
2023-05-25T15:08:50.809Z,22.00
2023-05-25T15:11:19.959Z,22.00
2023-05-25T15:13:51.743Z,22.00
2023-05-25T15:16:21.596Z,21.80
2023-05-25T15:18:52.221Z,21.60
2023-05-25T15:21:21.985Z,21.50
2023-05-25T15:23:51.837Z,21.40
2023-05-25T15:26:21.976Z,21.30
2023-05-25T15:28:50.443Z,21.20
2023-05-25T15:31:19.982Z,21.20
2023-05-25T15:33:58.266Z,21.10
2023-05-25T15:36:33.615Z,21.00
2023-05-25T15:39:04.502Z,20.90
2023-05-25T15:41:37.915Z,20.80
2023-05-25T15:44:13.448Z,20.90
2023-05-25T15:46:45.359Z,20.80
2023-05-25T15:49:15.800Z,20.70
2023-05-25T15:51:48.202Z,20.70
2023-05-25T15:54:16.238Z,20.70
2023-05-25T15:56:45.345Z,20.70
2023-05-25T15:59:14.917Z,20.60
2023-05-25T16:01:45.135Z,20.60
2023-05-25T16:04:16.509Z,20.60
2023-05-25T16:06:49.530Z,20.50
2023-05-25T16:09:21.055Z,20.50
2023-05-25T16:11:50.509Z,20.50
2023-05-25T16:14:20.887Z,20.50
2023-05-25T16:16:49.686Z,20.40
2023-05-25T16:19:18.571Z,20.30
2023-05-25T16:21:49.562Z,20.20
2023-05-25T16:24:19.480Z,20.20
2023-05-25T16:26:49.882Z,20.10
2023-05-25T16:29:20.102Z,20.10
2023-05-25T16:31:50.938Z,20.00
2023-05-25T16:34:20.810Z,20.00
2023-05-25T16:36:51.030Z,20.00
2023-05-25T16:39:19.431Z,19.90
2023-05-25T16:41:51.013Z,19.90
2023-05-25T16:44:21.223Z,19.80
2023-05-25T16:46:57.496Z,19.80
2023-05-25T16:49:28.895Z,19.80
2023-05-25T16:52:01.463Z,19.80
2023-05-25T16:54:31.456Z,19.80
2023-05-25T16:57:03.367Z,19.70
2023-05-25T16:59:33.028Z,19.60
2023-05-25T17:02:03.740Z,19.60
2023-05-25T17:04:34.527Z,19.50
2023-05-25T17:07:06.564Z,19.50
2023-05-25T17:09:44.117Z,19.50
2023-05-25T17:12:14.315Z,19.40
2023-05-25T17:14:45.994Z,19.40
2023-05-25T17:17:20.002Z,19.40
2023-05-25T17:19:49.739Z,19.30
2023-05-25T17:22:24.883Z,19.20
2023-05-25T17:24:55.260Z,19.20
2023-05-25T17:27:25.050Z,19.10
2023-05-25T17:29:56.091Z,19.00
2023-05-25T17:32:27.169Z,19.00
2023-05-25T17:35:00.432Z,18.90
2023-05-25T17:37:32.010Z,18.90
2023-05-25T17:40:03.120Z,18.80
2023-05-25T17:42:34.670Z,18.80
2023-05-25T17:45:13.145Z,18.70
2023-05-25T17:47:47.550Z,18.60
2023-05-25T17:50:19.952Z,18.60
2023-05-25T17:52:58.886Z,18.60
2023-05-25T17:55:37.125Z,18.50
2023-05-25T17:58:07.806Z,18.50
2023-05-25T18:00:37.041Z,18.40
2023-05-25T18:03:12.886Z,18.30
2023-05-25T18:05:45.031Z,18.30
2023-05-25T18:08:19.347Z,18.20
2023-05-25T18:10:51.185Z,18.10
2023-05-25T18:13:22.348Z,18.00
2023-05-25T18:15:57.111Z,17.90
2023-05-25T18:18:31.155Z,17.90
2023-05-25T18:21:03.596Z,17.80
2023-05-25T18:23:44.431Z,17.70
2023-05-25T18:26:14.258Z,17.70
2023-05-25T18:28:45.994Z,17.60
2023-05-25T18:31:17.967Z,17.50
2023-05-25T18:33:48.837Z,17.50
2023-05-25T18:36:20.145Z,17.40
2023-05-25T18:38:53.938Z,17.40
2023-05-25T18:41:25.192Z,17.30
2023-05-25T18:43:55.344Z,17.20
2023-05-25T18:46:27.409Z,17.20
2023-05-25T18:48:59.004Z,17.10
2023-05-25T18:51:28.950Z,17.00
2023-05-25T18:54:04.713Z,16.90
2023-05-25T18:56:36.118Z,16.90
2023-05-25T18:59:06.384Z,16.80
2023-05-25T19:01:38.400Z,16.70
2023-05-25T19:04:09.657Z,16.60
2023-05-25T19:06:41.685Z,16.60
2023-05-25T19:09:14.721Z,16.50
2023-05-25T19:11:46.024Z,16.40
2023-05-25T19:14:21.082Z,16.40
2023-05-25T19:16:51.713Z,16.30
2023-05-25T19:19:22.212Z,16.20
2023-05-25T19:21:56.174Z,16.20
2023-05-25T19:24:25.494Z,16.20
2023-05-25T19:26:53.351Z,16.10
2023-05-25T19:29:21.226Z,16.00
2023-05-25T19:31:49.183Z,16.00
2023-05-25T19:34:17.078Z,15.90
2023-05-25T19:36:44.946Z,15.90
2023-05-25T19:39:12.834Z,15.80
2023-05-25T19:41:42.104Z,15.80
2023-05-25T19:44:10.462Z,15.70
2023-05-25T19:46:39.886Z,15.70
2023-05-25T19:49:08.051Z,15.60
2023-05-25T19:51:36.779Z,15.50
2023-05-25T19:54:04.774Z,15.40
2023-05-25T19:56:32.673Z,15.40
2023-05-25T19:59:01.914Z,15.30
2023-05-25T20:01:29.836Z,15.30
2023-05-25T20:03:57.923Z,15.20
2023-05-25T20:06:25.941Z,15.10
2023-05-25T20:08:53.854Z,15.10
2023-05-25T20:11:21.731Z,15.00
2023-05-25T20:13:49.809Z,15.00
2023-05-25T20:16:19.053Z,14.90
2023-05-25T20:18:47.012Z,14.90
2023-05-25T20:21:15.017Z,14.90
2023-05-25T20:23:42.891Z,14.90
2023-05-25T20:26:10.811Z,14.80
2023-05-25T20:28:38.708Z,14.80
2023-05-25T20:31:06.745Z,14.70
2023-05-25T20:33:36.106Z,14.70
2023-05-25T20:36:04.014Z,14.60
2023-05-25T20:38:31.895Z,14.60
2023-05-25T20:40:59.764Z,14.60
2023-05-25T20:43:27.727Z,14.60
2023-05-25T20:45:55.861Z,14.60
2023-05-25T20:48:23.742Z,14.60
2023-05-25T20:50:52.997Z,14.50
2023-05-25T20:53:21.097Z,14.50
2023-05-25T20:55:48.953Z,14.50
2023-05-25T20:58:16.833Z,14.40
2023-05-25T21:00:46.367Z,14.40
2023-05-25T21:03:14.358Z,14.30
2023-05-25T21:05:42.306Z,14.30
2023-05-25T21:08:11.956Z,14.30
2023-05-25T21:10:39.877Z,14.30
2023-05-25T21:13:07.800Z,14.30
2023-05-25T21:15:35.780Z,14.30
2023-05-25T21:18:05.574Z,14.20
2023-05-25T21:20:33.753Z,14.20
2023-05-25T21:23:02.566Z,14.10
2023-05-25T21:25:32.041Z,14.10
2023-05-25T21:27:59.924Z,14.10
2023-05-25T21:30:28.469Z,14.10
2023-05-25T21:32:56.391Z,14.10
2023-05-25T21:35:24.460Z,14.10
2023-05-25T21:37:52.317Z,14.00
2023-05-25T21:40:20.201Z,14.00
2023-05-25T21:42:51.204Z,14.00
2023-05-25T21:45:19.362Z,14.00
2023-05-25T21:47:47.536Z,14.10
2023-05-25T21:50:15.490Z,14.00
2023-05-25T21:52:43.466Z,14.00
2023-05-25T21:55:11.539Z,13.90
2023-05-25T21:57:39.459Z,13.90
2023-05-25T22:00:12.662Z,13.90
2023-05-25T22:02:41.001Z,13.90
2023-05-25T22:05:09.409Z,13.80
2023-05-25T22:07:37.292Z,13.80
2023-05-25T22:10:05.860Z,13.80
2023-05-25T22:12:33.767Z,13.70
2023-05-25T22:15:01.639Z,13.70
2023-05-25T22:17:31.006Z,13.70
2023-05-25T22:20:07.557Z,13.60
2023-05-25T22:22:37.292Z,13.60
2023-05-25T22:25:05.848Z,13.60
2023-05-25T22:27:34.286Z,13.50
2023-05-25T22:30:02.305Z,13.60
2023-05-25T22:32:31.898Z,13.50
2023-05-25T22:34:59.872Z,13.50
2023-05-25T22:37:27.865Z,13.40
2023-05-25T22:39:55.768Z,13.40
2023-05-25T22:42:23.748Z,13.40
2023-05-25T22:44:52.752Z,13.30
2023-05-25T22:47:20.740Z,13.30
2023-05-25T22:49:50.078Z,13.20
2023-05-25T22:52:18.127Z,13.10
2023-05-25T22:54:46.044Z,13.10
2023-05-25T22:57:13.935Z,13.00
2023-05-25T22:59:41.831Z,13.00
2023-05-25T23:02:09.787Z,13.00
2023-05-25T23:04:37.873Z,13.00
2023-05-25T23:07:07.198Z,13.00
2023-05-25T23:09:35.104Z,12.90
2023-05-25T23:12:02.992Z,12.90
2023-05-25T23:14:31.336Z,12.90
2023-05-25T23:16:59.226Z,12.80
2023-05-25T23:19:27.115Z,12.80
2023-05-25T23:21:56.490Z,12.80
2023-05-25T23:24:25.802Z,12.80
2023-05-25T23:26:53.693Z,12.80
2023-05-25T23:29:21.598Z,12.80
2023-05-25T23:31:49.533Z,12.80
2023-05-25T23:34:17.440Z,12.80
2023-05-25T23:36:45.945Z,12.80
2023-05-25T23:39:13.925Z,12.70
2023-05-25T23:41:43.175Z,12.70
2023-05-25T23:44:11.053Z,12.70
2023-05-25T23:46:38.973Z,12.60
2023-05-25T23:49:06.895Z,12.60
2023-05-25T23:51:34.782Z,12.50
2023-05-25T23:54:02.687Z,12.50
2023-05-25T23:56:32.333Z,12.40
2023-05-25T23:59:01.563Z,12.30
